Indianapolis, IN (46253)

4:29 AM EST on November 24, 2014 (GMT -0500)
Speedway | Change Station
CLOSE
Current Station
Personal Weather Station
Location: Speedway, IN
Elevation: 768 ft
Nearby Weather Stations
Active Advisory: Wind Advisory

Elev 768 ft 39.81 °N, 86.26 °W | Updated 3 seconds ago

Mostly Cloudy
Mostly Cloudy
53.6 °F
Feels Like 53.6 °F
N
1.7
Wind Variable Wind from SSW
Gusts 2.9 mph

Today
High -- | Low -- °F
--% Chance of Precip.
Yesterday
High -- | Low -- °F
Precip. -- in
7:39 AM 5:23 PM
Waxing Crescent, 4% visible
Pressure 29.22 in
Visibility 10.0 miles
Clouds Overcast 1700 ft
Dew Point 52 °F
Humidity 95%
Rainfall 0.16 in
Snow Depth Not available.
UV 0 out of 12
Pollen .10 out of 12
Air Quality Not available.
Flu Activity Not available.
METAR KIND 240854Z 21012KT 10SM OVC017 12/12 A2922 RMK AO2 SLP893 60002 T01220117 50005

More Conditions Fewer Conditions

Pressure 29.22 in
Visibility 10.0 miles
Clouds Overcast 1700 ft
Dew Point 52 °F
Humidity 95%
Rainfall 0.16 in
Snow Depth Not available.
UV 0 out of 12
Pollen .10 out of 12
Air Quality Not available.
Flu Activity Not available.
METAR KIND 240854Z 21012KT 10SM OVC017 12/12 A2922 RMK AO2 SLP893 60002 T01220117 50005

More Conditions Fewer Conditions

10-Day Weather Forecast

Almanac

Astronomy

Nov. 24, 2014 Rise Set
Actual Time
Civil Twilight
Nautical Twilight
Astronomical Twilight
Moon
Length of Visible Light
Length of Day
Tomorrow will be .
, % of the Moon is Illuminated

Today's Extremes

State Highs State Lows

Community

WunderPhotos

Upload Photos

1,773,294 photos uploaded!

WunderBlogs® & News

Nearby

Air Quality

  Air Quality AQ Index Pollutant
Not available.

Snow Depth

Station Depth Elevation

Earthquake Activity

City Distance Mag. Time & Date
Minimum magnitude displayed is 2.5.

Coastal Water Temperatures

Place Temperature

Nearby Weather Stations